sensor_id;sensor_type;location;lat;lon;timestamp;P1;durP1;ratioP1;P2;durP2;ratioP2
21705;SDS011;11014;53.076;18.208;2022-09-01T00:01:14;5.07;;;2.40;;
21705;SDS011;11014;53.076;18.208;2022-09-01T00:03:54;4.32;;;2.20;;
21705;SDS011;11014;53.076;18.208;2022-09-01T00:06:31;3.45;;;2.00;;
21705;SDS011;11014;53.076;18.208;2022-09-01T00:09:03;3.10;;;1.85;;
21705;SDS011;11014;53.076;18.208;2022-09-01T00:11:33;2.53;;;1.92;;
21705;SDS011;11014;53.076;18.208;2022-09-01T00:14:03;3.47;;;2.17;;
21705;SDS011;11014;53.076;18.208;2022-09-01T00:16:49;3.88;;;2.10;;
21705;SDS011;11014;53.076;18.208;2022-09-01T00:19:18;3.35;;;1.63;;
21705;SDS011;11014;53.076;18.208;2022-09-01T00:21:47;3.15;;;1.90;;
21705;SDS011;11014;53.076;18.208;2022-09-01T00:24:16;2.50;;;1.85;;
21705;SDS011;11014;53.076;18.208;2022-09-01T00:26:45;3.35;;;1.90;;
21705;SDS011;11014;53.076;18.208;2022-09-01T00:29:14;3.45;;;1.88;;
21705;SDS011;11014;53.076;18.208;2022-09-01T00:31:43;4.72;;;2.03;;
21705;SDS011;11014;53.076;18.208;2022-09-01T00:34:11;2.67;;;1.80;;
21705;SDS011;11014;53.076;18.208;2022-09-01T00:36:40;3.28;;;1.88;;
21705;SDS011;11014;53.076;18.208;2022-09-01T00:39:08;2.75;;;2.10;;
21705;SDS011;11014;53.076;18.208;2022-09-01T00:41:38;4.50;;;2.08;;
21705;SDS011;11014;53.076;18.208;2022-09-01T00:44:09;3.92;;;2.08;;
21705;SDS011;11014;53.076;18.208;2022-09-01T00:46:42;3.55;;;1.80;;
21705;SDS011;11014;53.076;18.208;2022-09-01T00:49:26;2.60;;;1.88;;
21705;SDS011;11014;53.076;18.208;2022-09-01T00:52:06;4.78;;;2.22;;
21705;SDS011;11014;53.076;18.208;2022-09-01T00:54:48;4.13;;;2.08;;
21705;SDS011;11014;53.076;18.208;2022-09-01T00:57:19;2.72;;;1.70;;
21705;SDS011;11014;53.076;18.208;2022-09-01T00:59:50;3.47;;;2.00;;
21705;SDS011;11014;53.076;18.208;2022-09-01T01:02:22;2.42;;;1.88;;
21705;SDS011;11014;53.076;18.208;2022-09-01T01:04:51;2.55;;;1.67;;
21705;SDS011;11014;53.076;18.208;2022-09-01T01:07:19;3.58;;;2.30;;
21705;SDS011;11014;53.076;18.208;2022-09-01T01:09:57;3.05;;;2.13;;
21705;SDS011;11014;53.076;18.208;2022-09-01T01:12:26;4.20;;;1.90;;
21705;SDS011;11014;53.076;18.208;2022-09-01T01:14:57;2.95;;;1.83;;
21705;SDS011;11014;53.076;18.208;2022-09-01T01:17:26;2.53;;;1.83;;
21705;SDS011;11014;53.076;18.208;2022-09-01T01:19:55;2.65;;;1.90;;
21705;SDS011;11014;53.076;18.208;2022-09-01T01:25:32;4.35;;;2.10;;
21705;SDS011;11014;53.076;18.208;2022-09-01T01:28:20;2.92;;;2.00;;
21705;SDS011;11014;53.076;18.208;2022-09-01T01:30:59;2.83;;;1.70;;
21705;SDS011;11014;53.076;18.208;2022-09-01T01:33:35;3.63;;;2.03;;
21705;SDS011;11014;53.076;18.208;2022-09-01T01:36:14;3.65;;;2.13;;
21705;SDS011;11014;53.076;18.208;2022-09-01T01:38:46;4.45;;;2.35;;
21705;SDS011;11014;53.076;18.208;2022-09-01T01:41:16;3.97;;;1.87;;
21705;SDS011;11014;53.076;18.208;2022-09-01T01:43:49;3.33;;;2.00;;
21705;SDS011;11014;53.076;18.208;2022-09-01T01:46:19;2.83;;;1.95;;
21705;SDS011;11014;53.076;18.208;2022-09-01T01:48:49;3.28;;;1.90;;
21705;SDS011;11014;53.076;18.208;2022-09-01T01:51:20;3.45;;;2.13;;
21705;SDS011;11014;53.076;18.208;2022-09-01T01:53:54;2.83;;;1.80;;
21705;SDS011;11014;53.076;18.208;2022-09-01T01:56:24;3.55;;;2.10;;
21705;SDS011;11014;53.076;18.208;2022-09-01T01:58:53;3.53;;;1.98;;
21705;SDS011;11014;53.076;18.208;2022-09-01T02:01:27;3.20;;;1.77;;
21705;SDS011;11014;53.076;18.208;2022-09-01T02:03:59;3.65;;;1.85;;
21705;SDS011;11014;53.076;18.208;2022-09-01T02:06:32;2.75;;;1.80;;
21705;SDS011;11014;53.076;18.208;2022-09-01T02:09:02;2.97;;;1.77;;
21705;SDS011;11014;53.076;18.208;2022-09-01T02:11:31;2.45;;;1.67;;
21705;SDS011;11014;53.076;18.208;2022-09-01T02:14:03;4.10;;;1.83;;
21705;SDS011;11014;53.076;18.208;2022-09-01T02:16:34;3.33;;;1.85;;
21705;SDS011;11014;53.076;18.208;2022-09-01T02:19:04;2.30;;;1.70;;
21705;SDS011;11014;53.076;18.208;2022-09-01T02:21:36;2.47;;;1.70;;
21705;SDS011;11014;53.076;18.208;2022-09-01T02:24:05;2.38;;;1.80;;
21705;SDS011;11014;53.076;18.208;2022-09-01T02:26:42;4.32;;;1.73;;
21705;SDS011;11014;53.076;18.208;2022-09-01T02:29:16;3.10;;;1.70;;
21705;SDS011;11014;53.076;18.208;2022-09-01T02:31:49;3.80;;;1.80;;
21705;SDS011;11014;53.076;18.208;2022-09-01T02:34:20;2.33;;;1.73;;
21705;SDS011;11014;53.076;18.208;2022-09-01T02:36:53;3.10;;;1.80;;
21705;SDS011;11014;53.076;18.208;2022-09-01T02:39:28;2.50;;;1.60;;
21705;SDS011;11014;53.076;18.208;2022-09-01T02:42:01;2.90;;;1.73;;
21705;SDS011;11014;53.076;18.208;2022-09-01T02:44:29;4.05;;;1.90;;
21705;SDS011;11014;53.076;18.208;2022-09-01T02:47:00;3.20;;;1.58;;
21705;SDS011;11014;53.076;18.208;2022-09-01T02:49:28;3.15;;;1.60;;
21705;SDS011;11014;53.076;18.208;2022-09-01T02:51:58;2.67;;;1.63;;
21705;SDS011;11014;53.076;18.208;2022-09-01T02:54:30;2.22;;;1.60;;
21705;SDS011;11014;53.076;18.208;2022-09-01T02:56:59;2.08;;;1.58;;
21705;SDS011;11014;53.076;18.208;2022-09-01T02:59:28;3.33;;;1.70;;
21705;SDS011;11014;53.076;18.208;2022-09-01T03:04:29;2.75;;;1.92;;
21705;SDS011;11014;53.076;18.208;2022-09-01T03:07:02;2.10;;;1.80;;
21705;SDS011;11014;53.076;18.208;2022-09-01T03:09:32;1.92;;;1.50;;
21705;SDS011;11014;53.076;18.208;2022-09-01T03:12:02;2.47;;;1.70;;
21705;SDS011;11014;53.076;18.208;2022-09-01T03:14:35;1.98;;;1.48;;
21705;SDS011;11014;53.076;18.208;2022-09-01T03:17:03;2.28;;;1.70;;
21705;SDS011;11014;53.076;18.208;2022-09-01T03:19:31;3.58;;;1.60;;
21705;SDS011;11014;53.076;18.208;2022-09-01T03:22:12;1.98;;;1.48;;
21705;SDS011;11014;53.076;18.208;2022-09-01T03:24:41;2.22;;;1.80;;
21705;SDS011;11014;53.076;18.208;2022-09-01T03:27:09;2.20;;;1.45;;
21705;SDS011;11014;53.076;18.208;2022-09-01T03:29:38;2.45;;;1.70;;
21705;SDS011;11014;53.076;18.208;2022-09-01T03:32:07;4.25;;;1.90;;
21705;SDS011;11014;53.076;18.208;2022-09-01T03:34:36;1.92;;;1.65;;
21705;SDS011;11014;53.076;18.208;2022-09-01T03:37:05;3.75;;;1.75;;
21705;SDS011;11014;53.076;18.208;2022-09-01T03:39:35;4.15;;;2.22;;
21705;SDS011;11014;53.076;18.208;2022-09-01T03:42:04;4.78;;;2.38;;
21705;SDS011;11014;53.076;18.208;2022-09-01T03:44:35;3.97;;;1.63;;
21705;SDS011;11014;53.076;18.208;2022-09-01T03:49:38;3.17;;;1.95;;
21705;SDS011;11014;53.076;18.208;2022-09-01T03:52:07;4.13;;;1.88;;
21705;SDS011;11014;53.076;18.208;2022-09-01T03:54:40;9.73;;;3.08;;
21705;SDS011;11014;53.076;18.208;2022-09-01T03:57:08;3.60;;;2.10;;
21705;SDS011;11014;53.076;18.208;2022-09-01T03:59:40;3.35;;;2.03;;
21705;SDS011;11014;53.076;18.208;2022-09-01T04:02:12;2.60;;;2.03;;
21705;SDS011;11014;53.076;18.208;2022-09-01T04:04:41;2.80;;;1.90;;
21705;SDS011;11014;53.076;18.208;2022-09-01T04:07:10;3.13;;;1.70;;
21705;SDS011;11014;53.076;18.208;2022-09-01T04:09:46;2.95;;;1.92;;
21705;SDS011;11014;53.076;18.208;2022-09-01T04:12:15;2.78;;;1.73;;
21705;SDS011;11014;53.076;18.208;2022-09-01T04:14:49;4.22;;;1.80;;
21705;SDS011;11014;53.076;18.208;2022-09-01T04:17:19;3.72;;;2.30;;
21705;SDS011;11014;53.076;18.208;2022-09-01T04:20:06;3.05;;;1.85;;
21705;SDS011;11014;53.076;18.208;2022-09-01T04:22:36;3.55;;;1.85;;
21705;SDS011;11014;53.076;18.208;2022-09-01T04:25:05;4.07;;;1.92;;
21705;SDS011;11014;53.076;18.208;2022-09-01T04:27:34;3.85;;;2.15;;
21705;SDS011;11014;53.076;18.208;2022-09-01T04:30:08;6.97;;;2.17;;
21705;SDS011;11014;53.076;18.208;2022-09-01T04:32:39;5.72;;;2.13;;
21705;SDS011;11014;53.076;18.208;2022-09-01T04:35:07;6.30;;;2.10;;
21705;SDS011;11014;53.076;18.208;2022-09-01T04:37:38;6.70;;;2.10;;
21705;SDS011;11014;53.076;18.208;2022-09-01T04:40:07;3.85;;;2.00;;
21705;SDS011;11014;53.076;18.208;2022-09-01T04:42:36;8.23;;;2.25;;
21705;SDS011;11014;53.076;18.208;2022-09-01T04:45:05;5.72;;;2.35;;
21705;SDS011;11014;53.076;18.208;2022-09-01T04:47:41;2.83;;;1.90;;
21705;SDS011;11014;53.076;18.208;2022-09-01T04:50:16;7.32;;;2.50;;
21705;SDS011;11014;53.076;18.208;2022-09-01T04:53:04;6.78;;;2.10;;
21705;SDS011;11014;53.076;18.208;2022-09-01T04:55:47;3.20;;;2.17;;
21705;SDS011;11014;53.076;18.208;2022-09-01T04:58:19;5.03;;;2.40;;
21705;SDS011;11014;53.076;18.208;2022-09-01T05:00:49;4.47;;;2.00;;
21705;SDS011;11014;53.076;18.208;2022-09-01T05:03:23;5.80;;;2.08;;
21705;SDS011;11014;53.076;18.208;2022-09-01T05:06:03;6.65;;;2.30;;
21705;SDS011;11014;53.076;18.208;2022-09-01T05:08:34;3.10;;;1.63;;
21705;SDS011;11014;53.076;18.208;2022-09-01T05:11:13;3.38;;;2.13;;
21705;SDS011;11014;53.076;18.208;2022-09-01T05:13:47;4.63;;;2.33;;
21705;SDS011;11014;53.076;18.208;2022-09-01T05:16:17;6.70;;;2.20;;
21705;SDS011;11014;53.076;18.208;2022-09-01T05:18:56;7.00;;;2.70;;
21705;SDS011;11014;53.076;18.208;2022-09-01T05:21:31;3.67;;;2.20;;
21705;SDS011;11014;53.076;18.208;2022-09-01T05:24:00;3.88;;;2.03;;
21705;SDS011;11014;53.076;18.208;2022-09-01T05:26:31;4.40;;;2.10;;
21705;SDS011;11014;53.076;18.208;2022-09-01T05:29:02;5.00;;;2.20;;
21705;SDS011;11014;53.076;18.208;2022-09-01T05:31:39;4.82;;;2.05;;
21705;SDS011;11014;53.076;18.208;2022-09-01T05:34:10;5.53;;;2.20;;
21705;SDS011;11014;53.076;18.208;2022-09-01T05:36:43;7.60;;;2.30;;
21705;SDS011;11014;53.076;18.208;2022-09-01T05:39:13;5.53;;;1.98;;
21705;SDS011;11014;53.076;18.208;2022-09-01T05:41:43;5.25;;;1.98;;
21705;SDS011;11014;53.076;18.208;2022-09-01T05:44:12;3.00;;;2.00;;
21705;SDS011;11014;53.076;18.208;2022-09-01T05:46:42;3.97;;;2.20;;
21705;SDS011;11014;53.076;18.208;2022-09-01T05:49:12;5.82;;;2.15;;
21705;SDS011;11014;53.076;18.208;2022-09-01T05:51:46;4.00;;;2.00;;
21705;SDS011;11014;53.076;18.208;2022-09-01T05:54:20;4.68;;;2.42;;
21705;SDS011;11014;53.076;18.208;2022-09-01T05:56:54;5.45;;;2.10;;
21705;SDS011;11014;53.076;18.208;2022-09-01T05:59:45;5.68;;;2.55;;
21705;SDS011;11014;53.076;18.208;2022-09-01T06:02:24;5.47;;;2.10;;
21705;SDS011;11014;53.076;18.208;2022-09-01T06:04:56;4.47;;;2.00;;
21705;SDS011;11014;53.076;18.208;2022-09-01T06:07:32;3.65;;;2.40;;
21705;SDS011;11014;53.076;18.208;2022-09-01T06:10:01;2.88;;;2.03;;
21705;SDS011;11014;53.076;18.208;2022-09-01T06:12:30;2.90;;;1.92;;
21705;SDS011;11014;53.076;18.208;2022-09-01T06:14:59;4.07;;;2.30;;
21705;SDS011;11014;53.076;18.208;2022-09-01T06:17:28;5.57;;;2.60;;
21705;SDS011;11014;53.076;18.208;2022-09-01T06:20:03;5.00;;;2.17;;
21705;SDS011;11014;53.076;18.208;2022-09-01T06:22:41;2.38;;;1.60;;
21705;SDS011;11014;53.076;18.208;2022-09-01T06:25:11;2.72;;;1.95;;
21705;SDS011;11014;53.076;18.208;2022-09-01T06:27:44;5.07;;;2.10;;
21705;SDS011;11014;53.076;18.208;2022-09-01T06:30:16;3.08;;;1.73;;
21705;SDS011;11014;53.076;18.208;2022-09-01T06:33:01;6.32;;;1.77;;
21705;SDS011;11014;53.076;18.208;2022-09-01T06:35:33;3.83;;;1.85;;
21705;SDS011;11014;53.076;18.208;2022-09-01T06:38:03;3.47;;;1.90;;
21705;SDS011;11014;53.076;18.208;2022-09-01T06:40:49;3.58;;;1.77;;
21705;SDS011;11014;53.076;18.208;2022-09-01T06:43:26;3.33;;;1.60;;
21705;SDS011;11014;53.076;18.208;2022-09-01T06:45:59;4.32;;;2.10;;
21705;SDS011;11014;53.076;18.208;2022-09-01T06:48:29;3.00;;;1.88;;
21705;SDS011;11014;53.076;18.208;2022-09-01T06:51:03;3.63;;;1.65;;
21705;SDS011;11014;53.076;18.208;2022-09-01T06:53:55;2.63;;;1.70;;
21705;SDS011;11014;53.076;18.208;2022-09-01T06:56:30;4.30;;;1.95;;
21705;SDS011;11014;53.076;18.208;2022-09-01T06:59:09;4.25;;;1.92;;
21705;SDS011;11014;53.076;18.208;2022-09-01T07:01:46;3.00;;;1.80;;
21705;SDS011;11014;53.076;18.208;2022-09-01T07:04:18;2.88;;;1.65;;
21705;SDS011;11014;53.076;18.208;2022-09-01T07:06:54;3.90;;;1.60;;
21705;SDS011;11014;53.076;18.208;2022-09-01T07:10:03;4.35;;;1.67;;
21705;SDS011;11014;53.076;18.208;2022-09-01T07:12:59;1.92;;;1.38;;
21705;SDS011;11014;53.076;18.208;2022-09-01T07:15:37;2.72;;;1.70;;
21705;SDS011;11014;53.076;18.208;2022-09-01T07:18:29;3.45;;;2.08;;
21705;SDS011;11014;53.076;18.208;2022-09-01T07:20:59;2.58;;;1.50;;
21705;SDS011;11014;53.076;18.208;2022-09-01T07:23:53;3.50;;;1.90;;
21705;SDS011;11014;53.076;18.208;2022-09-01T07:26:47;1.67;;;1.50;;
21705;SDS011;11014;53.076;18.208;2022-09-01T07:29:18;2.97;;;1.60;;
21705;SDS011;11014;53.076;18.208;2022-09-01T07:34:42;2.67;;;1.60;;
21705;SDS011;11014;53.076;18.208;2022-09-01T07:37:17;2.72;;;1.70;;
21705;SDS011;11014;53.076;18.208;2022-09-01T07:43:23;5.45;;;1.60;;
21705;SDS011;11014;53.076;18.208;2022-09-01T07:46:22;3.20;;;1.50;;
21705;SDS011;11014;53.076;18.208;2022-09-01T07:49:14;1.92;;;1.63;;
21705;SDS011;11014;53.076;18.208;2022-09-01T07:52:03;3.65;;;1.60;;
21705;SDS011;11014;53.076;18.208;2022-09-01T07:54:33;1.85;;;1.42;;
21705;SDS011;11014;53.076;18.208;2022-09-01T07:57:04;3.30;;;1.70;;
21705;SDS011;11014;53.076;18.208;2022-09-01T07:59:34;1.88;;;1.30;;
21705;SDS011;11014;53.076;18.208;2022-09-01T08:02:15;2.15;;;1.50;;
21705;SDS011;11014;53.076;18.208;2022-09-01T08:04:46;2.00;;;1.45;;
21705;SDS011;11014;53.076;18.208;2022-09-01T08:07:17;5.83;;;1.60;;
21705;SDS011;11014;53.076;18.208;2022-09-01T08:09:47;3.58;;;1.50;;
21705;SDS011;11014;53.076;18.208;2022-09-01T08:12:16;2.67;;;1.33;;
21705;SDS011;11014;53.076;18.208;2022-09-01T08:14:49;2.42;;;1.50;;
21705;SDS011;11014;53.076;18.208;2022-09-01T08:17:41;4.93;;;1.38;;
21705;SDS011;11014;53.076;18.208;2022-09-01T08:20:20;2.80;;;1.38;;
21705;SDS011;11014;53.076;18.208;2022-09-01T08:23:08;2.65;;;1.60;;
21705;SDS011;11014;53.076;18.208;2022-09-01T08:25:39;1.80;;;1.30;;
21705;SDS011;11014;53.076;18.208;2022-09-01T08:28:09;2.60;;;1.40;;
21705;SDS011;11014;53.076;18.208;2022-09-01T08:30:40;2.97;;;1.40;;
21705;SDS011;11014;53.076;18.208;2022-09-01T08:33:21;3.13;;;1.73;;
21705;SDS011;11014;53.076;18.208;2022-09-01T08:35:50;3.53;;;2.08;;
21705;SDS011;11014;53.076;18.208;2022-09-01T08:38:19;1.65;;;1.20;;
21705;SDS011;11014;53.076;18.208;2022-09-01T08:40:51;2.00;;;1.35;;
21705;SDS011;11014;53.076;18.208;2022-09-01T08:43:35;2.25;;;1.40;;
21705;SDS011;11014;53.076;18.208;2022-09-01T08:49:00;1.63;;;1.23;;
21705;SDS011;11014;53.076;18.208;2022-09-01T08:52:26;3.30;;;1.45;;
21705;SDS011;11014;53.076;18.208;2022-09-01T08:57:45;3.15;;;1.33;;
21705;SDS011;11014;53.076;18.208;2022-09-01T09:00:41;2.47;;;1.20;;
21705;SDS011;11014;53.076;18.208;2022-09-01T09:03:33;2.10;;;1.20;;
21705;SDS011;11014;53.076;18.208;2022-09-01T09:06:22;4.53;;;1.30;;
21705;SDS011;11014;53.076;18.208;2022-09-01T09:08:54;1.60;;;1.10;;
21705;SDS011;11014;53.076;18.208;2022-09-01T09:11:39;2.53;;;1.05;;
21705;SDS011;11014;53.076;18.208;2022-09-01T09:17:33;2.35;;;1.55;;
21705;SDS011;11014;53.076;18.208;2022-09-01T09:20:07;1.85;;;1.30;;
21705;SDS011;11014;53.076;18.208;2022-09-01T09:22:36;1.70;;;0.90;;
21705;SDS011;11014;53.076;18.208;2022-09-01T09:25:09;2.50;;;1.10;;
21705;SDS011;11014;53.076;18.208;2022-09-01T09:27:47;1.30;;;1.10;;
21705;SDS011;11014;53.076;18.208;2022-09-01T09:30:27;1.20;;;1.00;;
21705;SDS011;11014;53.076;18.208;2022-09-01T09:32:59;2.47;;;1.23;;
21705;SDS011;11014;53.076;18.208;2022-09-01T09:35:52;3.78;;;1.25;;
21705;SDS011;11014;53.076;18.208;2022-09-01T09:38:24;2.65;;;1.10;;
21705;SDS011;11014;53.076;18.208;2022-09-01T09:40:57;1.98;;;1.20;;
21705;SDS011;11014;53.076;18.208;2022-09-01T09:44:14;3.47;;;1.20;;
21705;SDS011;11014;53.076;18.208;2022-09-01T09:46:49;1.38;;;1.00;;
21705;SDS011;11014;53.076;18.208;2022-09-01T09:49:26;3.28;;;1.08;;
21705;SDS011;11014;53.076;18.208;2022-09-01T09:52:16;1.48;;;1.00;;
21705;SDS011;11014;53.076;18.208;2022-09-01T09:57:52;1.23;;;1.02;;
21705;SDS011;11014;53.076;18.208;2022-09-01T10:00:27;2.45;;;1.10;;
21705;SDS011;11014;53.076;18.208;2022-09-01T10:03:03;0.85;;;0.80;;
21705;SDS011;11014;53.076;18.208;2022-09-01T10:05:49;1.50;;;1.00;;
21705;SDS011;11014;53.076;18.208;2022-09-01T10:10:55;1.65;;;0.80;;
21705;SDS011;11014;53.076;18.208;2022-09-01T10:16:04;2.65;;;1.00;;
21705;SDS011;11014;53.076;18.208;2022-09-01T10:18:39;2.25;;;1.00;;
21705;SDS011;11014;53.076;18.208;2022-09-01T10:21:16;2.15;;;1.10;;
21705;SDS011;11014;53.076;18.208;2022-09-01T10:23:50;2.15;;;1.08;;
21705;SDS011;11014;53.076;18.208;2022-09-01T10:26:23;1.90;;;0.90;;
21705;SDS011;11014;53.076;18.208;2022-09-01T10:31:39;2.15;;;0.80;;
21705;SDS011;11014;53.076;18.208;2022-09-01T10:34:10;1.50;;;0.80;;
21705;SDS011;11014;53.076;18.208;2022-09-01T10:36:54;1.02;;;0.80;;
21705;SDS011;11014;53.076;18.208;2022-09-01T10:39:26;2.13;;;0.80;;
21705;SDS011;11014;53.076;18.208;2022-09-01T10:41:58;1.92;;;1.00;;
21705;SDS011;11014;53.076;18.208;2022-09-01T10:44:35;4.00;;;0.95;;
21705;SDS011;11014;53.076;18.208;2022-09-01T10:47:10;2.05;;;0.98;;
21705;SDS011;11014;53.076;18.208;2022-09-01T11:05:08;2.05;;;1.10;;
21705;SDS011;11014;53.076;18.208;2022-09-01T11:15:51;3.28;;;1.70;;
21705;SDS011;11014;53.076;18.208;2022-09-01T11:18:25;2.80;;;1.70;;
21705;SDS011;11014;53.076;18.208;2022-09-01T11:21:15;2.78;;;1.52;;
21705;SDS011;11014;53.076;18.208;2022-09-01T11:26:58;1.40;;;1.30;;
21705;SDS011;11014;53.076;18.208;2022-09-01T11:32:40;2.30;;;1.35;;
21705;SDS011;11014;53.076;18.208;2022-09-01T11:35:18;2.45;;;1.65;;
21705;SDS011;11014;53.076;18.208;2022-09-01T11:37:54;1.80;;;1.40;;
21705;SDS011;11014;53.076;18.208;2022-09-01T11:40:30;3.30;;;1.50;;
21705;SDS011;11014;53.076;18.208;2022-09-01T11:43:06;1.70;;;1.50;;
21705;SDS011;11014;53.076;18.208;2022-09-01T11:46:01;4.18;;;1.65;;
21705;SDS011;11014;53.076;18.208;2022-09-01T11:48:44;1.58;;;1.30;;
21705;SDS011;11014;53.076;18.208;2022-09-01T11:51:18;2.03;;;1.40;;
21705;SDS011;11014;53.076;18.208;2022-09-01T11:53:48;3.33;;;1.50;;
21705;SDS011;11014;53.076;18.208;2022-09-01T11:56:23;1.83;;;1.27;;
21705;SDS011;11014;53.076;18.208;2022-09-01T11:58:54;2.03;;;1.33;;
21705;SDS011;11014;53.076;18.208;2022-09-01T12:01:30;2.90;;;1.17;;
21705;SDS011;11014;53.076;18.208;2022-09-01T12:04:21;2.78;;;1.20;;
21705;SDS011;11014;53.076;18.208;2022-09-01T12:06:57;2.28;;;1.13;;
21705;SDS011;11014;53.076;18.208;2022-09-01T12:09:32;2.33;;;1.30;;
21705;SDS011;11014;53.076;18.208;2022-09-01T12:12:06;2.22;;;1.20;;
21705;SDS011;11014;53.076;18.208;2022-09-01T12:14:56;1.65;;;1.13;;
21705;SDS011;11014;53.076;18.208;2022-09-01T12:17:33;3.53;;;1.10;;
21705;SDS011;11014;53.076;18.208;2022-09-01T12:23:17;2.58;;;1.10;;
21705;SDS011;11014;53.076;18.208;2022-09-01T12:25:58;2.33;;;1.15;;
21705;SDS011;11014;53.076;18.208;2022-09-01T12:28:29;2.55;;;1.00;;
21705;SDS011;11014;53.076;18.208;2022-09-01T12:31:04;1.80;;;1.45;;
21705;SDS011;11014;53.076;18.208;2022-09-01T12:33:35;1.27;;;1.17;;
21705;SDS011;11014;53.076;18.208;2022-09-01T12:36:14;2.08;;;1.00;;
21705;SDS011;11014;53.076;18.208;2022-09-01T12:38:55;2.92;;;1.23;;
21705;SDS011;11014;53.076;18.208;2022-09-01T12:41:44;1.40;;;1.30;;
21705;SDS011;11014;53.076;18.208;2022-09-01T12:44:29;2.83;;;1.13;;
21705;SDS011;11014;53.076;18.208;2022-09-01T12:47:04;1.30;;;1.15;;
21705;SDS011;11014;53.076;18.208;2022-09-01T12:49:35;1.77;;;1.13;;
21705;SDS011;11014;53.076;18.208;2022-09-01T12:54:49;1.95;;;1.15;;
21705;SDS011;11014;53.076;18.208;2022-09-01T13:00:07;1.23;;;1.00;;
21705;SDS011;11014;53.076;18.208;2022-09-01T13:02:41;1.73;;;1.25;;
21705;SDS011;11014;53.076;18.208;2022-09-01T13:08:10;1.80;;;1.08;;
21705;SDS011;11014;53.076;18.208;2022-09-01T13:10:54;1.88;;;0.98;;
21705;SDS011;11014;53.076;18.208;2022-09-01T13:13:25;1.45;;;1.05;;
21705;SDS011;11014;53.076;18.208;2022-09-01T13:15:55;2.50;;;0.80;;
21705;SDS011;11014;53.076;18.208;2022-09-01T13:18:42;2.53;;;1.50;;
21705;SDS011;11014;53.076;18.208;2022-09-01T13:21:31;1.40;;;1.00;;
21705;SDS011;11014;53.076;18.208;2022-09-01T13:24:03;1.20;;;0.80;;
21705;SDS011;11014;53.076;18.208;2022-09-01T13:26:34;3.28;;;0.95;;
21705;SDS011;11014;53.076;18.208;2022-09-01T13:29:04;1.67;;;1.00;;
21705;SDS011;11014;53.076;18.208;2022-09-01T13:31:32;1.63;;;1.00;;
21705;SDS011;11014;53.076;18.208;2022-09-01T13:34:03;1.23;;;0.90;;
21705;SDS011;11014;53.076;18.208;2022-09-01T13:36:50;1.35;;;0.90;;
21705;SDS011;11014;53.076;18.208;2022-09-01T13:39:19;1.58;;;0.90;;
21705;SDS011;11014;53.076;18.208;2022-09-01T13:41:49;3.78;;;1.10;;
21705;SDS011;11014;53.076;18.208;2022-09-01T13:44:18;2.53;;;1.10;;
21705;SDS011;11014;53.076;18.208;2022-09-01T13:46:46;1.08;;;0.90;;
21705;SDS011;11014;53.076;18.208;2022-09-01T13:49:35;1.88;;;1.05;;
21705;SDS011;11014;53.076;18.208;2022-09-01T13:52:23;2.15;;;1.00;;
21705;SDS011;11014;53.076;18.208;2022-09-01T13:54:52;2.08;;;1.00;;
21705;SDS011;11014;53.076;18.208;2022-09-01T13:57:20;1.42;;;1.05;;
21705;SDS011;11014;53.076;18.208;2022-09-01T13:59:49;1.27;;;0.90;;
21705;SDS011;11014;53.076;18.208;2022-09-01T14:02:18;2.10;;;1.00;;
21705;SDS011;11014;53.076;18.208;2022-09-01T14:07:40;1.33;;;0.80;;
21705;SDS011;11014;53.076;18.208;2022-09-01T14:10:08;1.48;;;0.82;;
21705;SDS011;11014;53.076;18.208;2022-09-01T14:12:37;1.60;;;1.15;;
21705;SDS011;11014;53.076;18.208;2022-09-01T14:15:07;2.83;;;1.08;;
21705;SDS011;11014;53.076;18.208;2022-09-01T14:17:42;5.95;;;1.10;;
21705;SDS011;11014;53.076;18.208;2022-09-01T14:20:13;2.30;;;0.90;;
21705;SDS011;11014;53.076;18.208;2022-09-01T14:23:08;2.08;;;1.27;;
21705;SDS011;11014;53.076;18.208;2022-09-01T14:25:44;1.95;;;0.80;;
21705;SDS011;11014;53.076;18.208;2022-09-01T14:28:16;1.33;;;0.90;;
21705;SDS011;11014;53.076;18.208;2022-09-01T14:30:53;3.58;;;0.98;;
21705;SDS011;11014;53.076;18.208;2022-09-01T14:33:31;3.50;;;0.95;;
21705;SDS011;11014;53.076;18.208;2022-09-01T14:37:21;3.90;;;0.90;;
21705;SDS011;11014;53.076;18.208;2022-09-01T14:40:12;2.10;;;0.77;;
21705;SDS011;11014;53.076;18.208;2022-09-01T14:43:10;3.70;;;0.75;;
21705;SDS011;11014;53.076;18.208;2022-09-01T14:45:43;2.63;;;0.85;;
21705;SDS011;11014;53.076;18.208;2022-09-01T14:48:37;1.77;;;0.68;;
21705;SDS011;11014;53.076;18.208;2022-09-01T14:54:51;1.52;;;0.63;;
21705;SDS011;11014;53.076;18.208;2022-09-01T14:57:20;2.28;;;0.80;;
21705;SDS011;11014;53.076;18.208;2022-09-01T15:00:08;1.20;;;0.82;;
21705;SDS011;11014;53.076;18.208;2022-09-01T15:02:40;1.00;;;0.70;;
21705;SDS011;11014;53.076;18.208;2022-09-01T15:05:10;1.02;;;0.70;;
21705;SDS011;11014;53.076;18.208;2022-09-01T15:07:54;2.78;;;0.85;;
21705;SDS011;11014;53.076;18.208;2022-09-01T15:10:23;1.65;;;0.80;;
21705;SDS011;11014;53.076;18.208;2022-09-01T15:13:11;2.28;;;0.90;;
21705;SDS011;11014;53.076;18.208;2022-09-01T15:15:40;1.70;;;0.88;;
21705;SDS011;11014;53.076;18.208;2022-09-01T15:18:09;2.63;;;0.93;;
21705;SDS011;11014;53.076;18.208;2022-09-01T15:20:38;1.15;;;0.63;;
21705;SDS011;11014;53.076;18.208;2022-09-01T15:23:18;1.52;;;0.85;;
21705;SDS011;11014;53.076;18.208;2022-09-01T15:25:54;2.25;;;0.85;;
21705;SDS011;11014;53.076;18.208;2022-09-01T15:28:23;1.52;;;0.88;;
21705;SDS011;11014;53.076;18.208;2022-09-01T15:30:52;1.40;;;0.65;;
21705;SDS011;11014;53.076;18.208;2022-09-01T15:33:21;2.80;;;0.70;;
21705;SDS011;11014;53.076;18.208;2022-09-01T15:35:49;3.00;;;0.90;;
21705;SDS011;11014;53.076;18.208;2022-09-01T15:38:20;1.07;;;0.80;;
21705;SDS011;11014;53.076;18.208;2022-09-01T15:40:54;2.95;;;0.85;;
21705;SDS011;11014;53.076;18.208;2022-09-01T15:43:26;1.80;;;0.93;;
21705;SDS011;11014;53.076;18.208;2022-09-01T15:45:56;2.70;;;0.90;;
21705;SDS011;11014;53.076;18.208;2022-09-01T15:48:25;1.48;;;0.77;;
21705;SDS011;11014;53.076;18.208;2022-09-01T15:54:21;1.35;;;0.85;;
21705;SDS011;11014;53.076;18.208;2022-09-01T15:56:57;2.25;;;0.75;;
21705;SDS011;11014;53.076;18.208;2022-09-01T15:59:25;1.45;;;0.68;;
21705;SDS011;11014;53.076;18.208;2022-09-01T16:01:56;2.58;;;0.80;;
21705;SDS011;11014;53.076;18.208;2022-09-01T16:04:25;2.95;;;1.25;;
21705;SDS011;11014;53.076;18.208;2022-09-01T16:06:54;3.92;;;1.10;;
21705;SDS011;11014;53.076;18.208;2022-09-01T16:09:23;1.63;;;0.60;;
21705;SDS011;11014;53.076;18.208;2022-09-01T16:11:53;5.63;;;1.13;;
21705;SDS011;11014;53.076;18.208;2022-09-01T16:14:21;2.38;;;0.82;;
21705;SDS011;11014;53.076;18.208;2022-09-01T16:19:48;1.60;;;0.95;;
21705;SDS011;11014;53.076;18.208;2022-09-01T16:22:47;6.72;;;0.95;;
21705;SDS011;11014;53.076;18.208;2022-09-01T16:25:25;4.68;;;0.93;;
21705;SDS011;11014;53.076;18.208;2022-09-01T16:28:00;3.55;;;1.38;;
21705;SDS011;11014;53.076;18.208;2022-09-01T16:30:37;2.42;;;0.85;;
21705;SDS011;11014;53.076;18.208;2022-09-01T16:33:06;2.65;;;0.70;;
21705;SDS011;11014;53.076;18.208;2022-09-01T16:36:10;2.25;;;1.15;;
21705;SDS011;11014;53.076;18.208;2022-09-01T16:38:58;2.03;;;0.80;;
21705;SDS011;11014;53.076;18.208;2022-09-01T16:41:37;2.53;;;0.80;;
21705;SDS011;11014;53.076;18.208;2022-09-01T16:44:20;1.73;;;0.80;;
21705;SDS011;11014;53.076;18.208;2022-09-01T16:47:19;1.00;;;0.73;;
21705;SDS011;11014;53.076;18.208;2022-09-01T16:52:59;1.27;;;0.82;;